sensor_id;sensor_type;location;lat;lon;timestamp;pressure;altitude;pressure_sealevel;temperature;humidity
9035;BME280;4552;43.422;24.592;2023-04-25T00:42:19;99024.28;;;13.53;100.00
9035;BME280;4552;43.422;24.592;2023-04-25T00:44:46;99005.06;;;13.51;100.00
9035;BME280;4552;43.422;24.592;2023-04-25T00:47:14;98991.63;;;13.59;100.00
9035;BME280;4552;43.422;24.592;2023-04-25T00:49:41;98987.97;;;13.63;100.00
9035;BME280;4552;43.422;24.592;2023-04-25T00:52:08;99000.84;;;13.69;100.00
9035;BME280;4552;43.422;24.592;2023-04-25T00:54:35;98998.94;;;13.72;100.00
9035;BME280;4552;43.422;24.592;2023-04-25T00:57:02;98989.03;;;13.79;100.00
9035;BME280;4552;43.422;24.592;2023-04-25T00:59:31;98994.28;;;13.79;100.00
9035;BME280;4552;43.422;24.592;2023-04-25T01:01:58;98994.38;;;13.98;100.00
9035;BME280;4552;43.422;24.592;2023-04-25T01:04:27;98992.22;;;14.07;100.00
9035;BME280;4552;43.422;24.592;2023-04-25T01:06:54;98996.13;;;13.97;100.00
9035;BME280;4552;43.422;24.592;2023-04-25T01:09:22;98995.72;;;14.06;100.00
9035;BME280;4552;43.422;24.592;2023-04-25T01:11:49;98993.72;;;14.13;100.00
9035;BME280;4552;43.422;24.592;2023-04-25T01:14:16;98990.75;;;14.20;100.00
9035;BME280;4552;43.422;24.592;2023-04-25T01:16:45;98996.78;;;14.24;100.00
9035;BME280;4552;43.422;24.592;2023-04-25T01:19:16;99006.06;;;14.11;100.00
9035;BME280;4552;43.422;24.592;2023-04-25T01:21:45;98991.66;;;13.99;100.00
9035;BME280;4552;43.422;24.592;2023-04-25T01:24:12;98999.38;;;14.04;100.00
9035;BME280;4552;43.422;24.592;2023-04-25T01:26:40;99004.50;;;14.07;100.00
9035;BME280;4552;43.422;24.592;2023-04-25T02:09:42;98934.63;;;14.20;100.00
9035;BME280;4552;43.422;24.592;2023-04-25T02:12:09;98934.31;;;14.07;100.00
9035;BME280;4552;43.422;24.592;2023-04-25T02:14:36;98923.88;;;13.85;100.00
9035;BME280;4552;43.422;24.592;2023-04-25T02:17:03;98932.53;;;13.67;100.00
9035;BME280;4552;43.422;24.592;2023-04-25T02:19:31;98929.31;;;13.61;100.00
9035;BME280;4552;43.422;24.592;2023-04-25T02:21:57;98919.84;;;13.57;100.00
9035;BME280;4552;43.422;24.592;2023-04-25T02:24:24;98919.25;;;13.50;100.00
9035;BME280;4552;43.422;24.592;2023-04-25T02:26:54;98916.81;;;13.46;100.00
9035;BME280;4552;43.422;24.592;2023-04-25T02:29:21;98929.38;;;13.59;100.00
9035;BME280;4552;43.422;24.592;2023-04-25T02:31:48;98925.09;;;13.57;100.00
9035;BME280;4552;43.422;24.592;2023-04-25T02:34:15;98927.53;;;13.61;100.00
9035;BME280;4552;43.422;24.592;2023-04-25T02:36:42;98928.97;;;13.68;100.00
9035;BME280;4552;43.422;24.592;2023-04-25T02:39:09;98917.72;;;13.65;100.00
9035;BME280;4552;43.422;24.592;2023-04-25T02:41:36;98915.69;;;13.71;100.00
9035;BME280;4552;43.422;24.592;2023-04-25T02:44:05;98912.28;;;13.69;100.00
9035;BME280;4552;43.422;24.592;2023-04-25T02:46:32;98909.50;;;13.72;100.00
9035;BME280;4552;43.422;24.592;2023-04-25T02:48:59;98917.66;;;13.86;100.00
9035;BME280;4552;43.422;24.592;2023-04-25T02:51:26;98915.97;;;13.85;100.00
9035;BME280;4552;43.422;24.592;2023-04-25T02:53:52;98913.19;;;14.09;100.00
9035;BME280;4552;43.422;24.592;2023-04-25T02:56:19;98908.22;;;14.03;100.00
9035;BME280;4552;43.422;24.592;2023-04-25T02:58:46;98919.28;;;14.09;100.00
9035;BME280;4552;43.422;24.592;2023-04-25T03:01:15;98910.25;;;13.96;100.00
9035;BME280;4552;43.422;24.592;2023-04-25T03:03:42;98905.44;;;13.85;100.00
9035;BME280;4552;43.422;24.592;2023-04-25T03:06:09;98910.97;;;13.79;100.00
9035;BME280;4552;43.422;24.592;2023-04-25T03:08:36;98919.66;;;13.81;100.00
9035;BME280;4552;43.422;24.592;2023-04-25T03:11:03;98910.16;;;14.18;100.00
9035;BME280;4552;43.422;24.592;2023-04-25T03:13:30;98913.78;;;14.15;100.00
9035;BME280;4552;43.422;24.592;2023-04-25T03:15:57;98913.41;;;14.43;100.00
9035;BME280;4552;43.422;24.592;2023-04-25T03:18:25;98910.56;;;14.29;100.00
9035;BME280;4552;43.422;24.592;2023-04-25T03:20:52;98915.41;;;14.18;100.00
9035;BME280;4552;43.422;24.592;2023-04-25T03:23:19;98919.75;;;14.19;100.00
9035;BME280;4552;43.422;24.592;2023-04-25T03:25:46;98913.41;;;14.24;100.00
9035;BME280;4552;43.422;24.592;2023-04-25T03:28:14;98917.25;;;14.16;100.00
9035;BME280;4552;43.422;24.592;2023-04-25T04:07:43;98935.78;;;14.53;100.00
9035;BME280;4552;43.422;24.592;2023-04-25T04:10:10;98925.38;;;14.50;100.00
9035;BME280;4552;43.422;24.592;2023-04-25T04:12:37;98941.03;;;14.53;100.00
9035;BME280;4552;43.422;24.592;2023-04-25T04:58:49;98965.38;;;15.32;96.75
9035;BME280;4552;43.422;24.592;2023-04-25T05:01:16;98966.31;;;15.31;95.10
9035;BME280;4552;43.422;24.592;2023-04-25T05:03:43;98959.53;;;15.25;95.29
9035;BME280;4552;43.422;24.592;2023-04-25T05:06:10;98956.66;;;15.30;93.96
9035;BME280;4552;43.422;24.592;2023-04-25T05:08:37;98956.19;;;15.57;93.08
9035;BME280;4552;43.422;24.592;2023-04-25T05:11:03;98972.00;;;16.10;92.67
9035;BME280;4552;43.422;24.592;2023-04-25T05:13:30;98985.44;;;16.06;90.73
9035;BME280;4552;43.422;24.592;2023-04-25T05:15:59;98972.53;;;15.83;91.68
9035;BME280;4552;43.422;24.592;2023-04-25T05:18:26;98979.91;;;15.93;92.22
9035;BME280;4552;43.422;24.592;2023-04-25T05:20:53;98976.94;;;15.99;93.36
9035;BME280;4552;43.422;24.592;2023-04-25T05:23:20;98983.59;;;16.23;91.96
9035;BME280;4552;43.422;24.592;2023-04-25T05:25:46;98984.09;;;16.14;90.36
9035;BME280;4552;43.422;24.592;2023-04-25T05:28:13;98990.06;;;16.18;91.34
9035;BME280;4552;43.422;24.592;2023-04-25T05:54:15;98984.50;;;16.73;89.63
9035;BME280;4552;43.422;24.592;2023-04-25T05:56:42;98984.53;;;16.56;90.24
9035;BME280;4552;43.422;24.592;2023-04-25T05:59:09;98975.91;;;16.53;89.10
9035;BME280;4552;43.422;24.592;2023-04-25T06:01:36;98987.34;;;16.53;87.82
9035;BME280;4552;43.422;24.592;2023-04-25T06:04:03;98969.81;;;16.68;85.95
9035;BME280;4552;43.422;24.592;2023-04-25T06:06:30;98967.31;;;16.97;85.75
9035;BME280;4552;43.422;24.592;2023-04-25T06:08:57;98963.97;;;16.94;85.64
9035;BME280;4552;43.422;24.592;2023-04-25T06:11:25;98971.72;;;16.97;81.95
9035;BME280;4552;43.422;24.592;2023-04-25T06:13:52;98972.09;;;17.22;79.29
9035;BME280;4552;43.422;24.592;2023-04-25T06:16:19;98968.31;;;17.10;78.11
9035;BME280;4552;43.422;24.592;2023-04-25T06:18:46;98964.50;;;17.00;77.99
9035;BME280;4552;43.422;24.592;2023-04-25T06:21:13;98968.31;;;17.10;78.86
9035;BME280;4552;43.422;24.592;2023-04-25T06:23:40;98979.59;;;17.29;78.61
9035;BME280;4552;43.422;24.592;2023-04-25T06:26:07;98976.44;;;17.39;79.20
9035;BME280;4552;43.422;24.592;2023-04-25T06:28:35;98971.75;;;17.28;79.71
9035;BME280;4552;43.422;24.592;2023-04-25T06:31:02;98961.16;;;17.12;78.99
9035;BME280;4552;43.422;24.592;2023-04-25T06:33:29;98971.47;;;17.33;78.65
9035;BME280;4552;43.422;24.592;2023-04-25T06:35:56;98981.81;;;17.37;77.90
9035;BME280;4552;43.422;24.592;2023-04-25T06:38:23;98975.47;;;17.40;79.81
9035;BME280;4552;43.422;24.592;2023-04-25T06:40:50;98969.00;;;17.29;78.70
9035;BME280;4552;43.422;24.592;2023-04-25T06:43:17;98975.75;;;17.51;79.89
9035;BME280;4552;43.422;24.592;2023-04-25T06:45:46;98975.13;;;17.77;79.19
9035;BME280;4552;43.422;24.592;2023-04-25T06:48:13;98981.44;;;17.74;77.59
9035;BME280;4552;43.422;24.592;2023-04-25T06:50:41;98976.69;;;17.95;76.10
9035;BME280;4552;43.422;24.592;2023-04-25T06:53:07;98975.91;;;17.93;76.78
9035;BME280;4552;43.422;24.592;2023-04-25T06:55:36;98982.03;;;18.09;76.03
9035;BME280;4552;43.422;24.592;2023-04-25T06:58:03;98980.28;;;17.94;76.42
9035;BME280;4552;43.422;24.592;2023-04-25T07:14:29;98984.25;;;18.30;72.94
9035;BME280;4552;43.422;24.592;2023-04-25T07:16:56;98981.38;;;18.49;72.41
9035;BME280;4552;43.422;24.592;2023-04-25T07:19:23;98980.97;;;18.83;70.92
9035;BME280;4552;43.422;24.592;2023-04-25T07:21:52;98984.78;;;18.79;71.30
9035;BME280;4552;43.422;24.592;2023-04-25T07:24:19;98989.88;;;18.40;72.74
9035;BME280;4552;43.422;24.592;2023-04-25T07:26:45;98987.78;;;18.01;73.61
9035;BME280;4552;43.422;24.592;2023-04-25T08:35:09;99004.22;;;20.28;57.44
9035;BME280;4552;43.422;24.592;2023-04-25T08:37:37;99002.06;;;20.20;58.16
9035;BME280;4552;43.422;24.592;2023-04-25T08:40:05;99005.19;;;20.39;58.26
9035;BME280;4552;43.422;24.592;2023-04-25T08:42:36;98995.50;;;20.51;58.57
9035;BME280;4552;43.422;24.592;2023-04-25T08:48:53;98995.88;;;19.54;57.47
9035;BME280;4552;43.422;24.592;2023-04-25T08:51:25;98994.41;;;19.63;58.13
9035;BME280;4552;43.422;24.592;2023-04-25T08:53:53;98996.13;;;19.37;55.95
9035;BME280;4552;43.422;24.592;2023-04-25T08:56:20;99004.06;;;19.37;56.21
9035;BME280;4552;43.422;24.592;2023-04-25T08:58:49;98993.28;;;19.12;56.20
9035;BME280;4552;43.422;24.592;2023-04-25T09:28:12;99000.94;;;20.10;53.26
9035;BME280;4552;43.422;24.592;2023-04-25T09:34:00;98988.66;;;20.85;52.79
9035;BME280;4552;43.422;24.592;2023-04-25T09:36:29;98986.13;;;20.45;55.35
9035;BME280;4552;43.422;24.592;2023-04-25T09:38:59;98991.25;;;20.23;56.26
9035;BME280;4552;43.422;24.592;2023-04-25T09:41:26;98978.38;;;19.64;57.97
9035;BME280;4552;43.422;24.592;2023-04-25T09:43:58;98997.78;;;19.52;57.66
9035;BME280;4552;43.422;24.592;2023-04-25T09:46:32;98979.25;;;19.65;58.83
9035;BME280;4552;43.422;24.592;2023-04-25T09:49:15;98969.59;;;19.64;55.87
9035;BME280;4552;43.422;24.592;2023-04-25T09:51:53;99000.78;;;20.13;54.98
9035;BME280;4552;43.422;24.592;2023-04-25T09:54:21;98992.00;;;20.11;54.70
9035;BME280;4552;43.422;24.592;2023-04-25T09:56:51;98993.56;;;20.15;56.10
9035;BME280;4552;43.422;24.592;2023-04-25T09:59:23;99001.19;;;19.54;58.52
9035;BME280;4552;43.422;24.592;2023-04-25T10:01:50;98993.38;;;19.65;58.36
9035;BME280;4552;43.422;24.592;2023-04-25T10:04:23;98994.63;;;19.86;58.55
9035;BME280;4552;43.422;24.592;2023-04-25T10:06:53;98992.31;;;19.94;58.57
9035;BME280;4552;43.422;24.592;2023-04-25T10:09:20;98985.63;;;20.01;58.08
9035;BME280;4552;43.422;24.592;2023-04-25T10:11:48;98981.00;;;20.17;56.72
9035;BME280;4552;43.422;24.592;2023-04-25T10:14:20;98970.84;;;20.49;56.09
9035;BME280;4552;43.422;24.592;2023-04-25T10:16:47;98974.13;;;20.52;57.00
9035;BME280;4552;43.422;24.592;2023-04-25T10:19:19;98966.56;;;20.72;55.42
9035;BME280;4552;43.422;24.592;2023-04-25T10:21:50;98970.63;;;20.65;55.17
9035;BME280;4552;43.422;24.592;2023-04-25T10:24:19;98959.19;;;20.12;56.54
9035;BME280;4552;43.422;24.592;2023-04-25T10:26:46;98963.19;;;19.93;57.50
9035;BME280;4552;43.422;24.592;2023-04-25T10:29:23;98945.56;;;20.04;55.58
9035;BME280;4552;43.422;24.592;2023-04-25T10:35:14;98956.34;;;20.91;53.07
9035;BME280;4552;43.422;24.592;2023-04-25T10:37:58;98952.00;;;20.65;52.73
9035;BME280;4552;43.422;24.592;2023-04-25T10:40:25;98943.69;;;20.31;52.78
9035;BME280;4552;43.422;24.592;2023-04-25T10:42:53;98955.81;;;20.23;52.23
9035;BME280;4552;43.422;24.592;2023-04-25T10:45:22;98949.84;;;20.19;53.55
9035;BME280;4552;43.422;24.592;2023-04-25T10:47:49;98954.16;;;19.95;54.02
9035;BME280;4552;43.422;24.592;2023-04-25T10:50:16;98934.91;;;19.92;54.01
9035;BME280;4552;43.422;24.592;2023-04-25T10:52:43;98938.13;;;19.97;54.02
9035;BME280;4552;43.422;24.592;2023-04-25T10:55:10;98933.31;;;19.89;54.39
9035;BME280;4552;43.422;24.592;2023-04-25T10:57:40;98936.16;;;19.47;55.51
9035;BME280;4552;43.422;24.592;2023-04-25T11:00:12;98934.25;;;19.49;57.19
9035;BME280;4552;43.422;24.592;2023-04-25T11:02:44;98941.53;;;19.33;57.70
9035;BME280;4552;43.422;24.592;2023-04-25T11:05:24;98935.72;;;19.41;58.15
9035;BME280;4552;43.422;24.592;2023-04-25T11:07:54;98937.53;;;19.40;56.66
9035;BME280;4552;43.422;24.592;2023-04-25T11:10:25;98942.63;;;19.82;55.61
9035;BME280;4552;43.422;24.592;2023-04-25T11:12:54;98932.81;;;19.58;55.38
9035;BME280;4552;43.422;24.592;2023-04-25T11:39:25;98926.19;;;20.41;54.17
9035;BME280;4552;43.422;24.592;2023-04-25T11:41:52;98926.88;;;20.69;52.64
9035;BME280;4552;43.422;24.592;2023-04-25T11:44:20;98925.09;;;20.69;52.07
9035;BME280;4552;43.422;24.592;2023-04-25T11:46:48;98903.16;;;20.66;51.69
9035;BME280;4552;43.422;24.592;2023-04-25T11:49:15;98918.69;;;20.46;51.56
9035;BME280;4552;43.422;24.592;2023-04-25T11:51:44;98916.25;;;21.17;51.58
9035;BME280;4552;43.422;24.592;2023-04-25T11:54:12;98921.22;;;20.98;42.14
9035;BME280;4552;43.422;24.592;2023-04-25T11:56:42;98900.41;;;20.04;54.63
9035;BME280;4552;43.422;24.592;2023-04-25T11:59:13;98888.13;;;19.77;55.93
9035;BME280;4552;43.422;24.592;2023-04-25T12:01:49;98887.63;;;19.84;56.75
9035;BME280;4552;43.422;24.592;2023-04-25T12:04:17;98887.69;;;19.58;58.17
9035;BME280;4552;43.422;24.592;2023-04-25T12:06:46;98892.47;;;19.65;57.05
9035;BME280;4552;43.422;24.592;2023-04-25T12:09:15;98880.91;;;19.27;57.65
9035;BME280;4552;43.422;24.592;2023-04-25T12:11:46;98870.63;;;19.21;58.72
9035;BME280;4552;43.422;24.592;2023-04-25T12:14:20;98888.78;;;19.41;59.14
9035;BME280;4552;43.422;24.592;2023-04-25T12:30:18;98889.81;;;20.29;55.76
9035;BME280;4552;43.422;24.592;2023-04-25T12:32:45;98882.34;;;20.09;57.04
9035;BME280;4552;43.422;24.592;2023-04-25T12:35:12;98909.34;;;20.28;56.15
9035;BME280;4552;43.422;24.592;2023-04-25T12:37:40;98964.47;;;19.20;50.57
9035;BME280;4552;43.422;24.592;2023-04-25T12:40:08;98973.25;;;17.93;50.95
9035;BME280;4552;43.422;24.592;2023-04-25T12:42:36;98971.47;;;17.01;57.90
9035;BME280;4552;43.422;24.592;2023-04-25T12:45:04;98977.88;;;15.64;73.94
9035;BME280;4552;43.422;24.592;2023-04-25T12:47:33;98972.53;;;14.74;85.96
9035;BME280;4552;43.422;24.592;2023-04-25T12:50:01;98979.28;;;14.41;92.64
9035;BME280;4552;43.422;24.592;2023-04-25T12:52:28;98969.75;;;13.98;98.58
9035;BME280;4552;43.422;24.592;2023-04-25T12:54:56;98975.13;;;13.75;100.00
9035;BME280;4552;43.422;24.592;2023-04-25T12:57:23;98975.25;;;13.72;100.00
9035;BME280;4552;43.422;24.592;2023-04-25T12:59:50;98986.06;;;13.45;100.00
9035;BME280;4552;43.422;24.592;2023-04-25T13:05:42;98985.53;;;13.15;100.00
9035;BME280;4552;43.422;24.592;2023-04-25T13:08:09;98980.69;;;13.05;100.00
9035;BME280;4552;43.422;24.592;2023-04-25T13:10:36;98981.22;;;13.13;100.00
9035;BME280;4552;43.422;24.592;2023-04-25T13:13:04;98989.72;;;13.19;100.00
9035;BME280;4552;43.422;24.592;2023-04-25T13:25:38;98999.69;;;13.11;100.00
9035;BME280;4552;43.422;24.592;2023-04-25T13:28:05;98993.53;;;13.12;100.00
9035;BME280;4552;43.422;24.592;2023-04-25T13:30:40;98988.28;;;13.12;100.00
9035;BME280;4552;43.422;24.592;2023-04-25T13:33:21;98988.59;;;13.26;100.00
9035;BME280;4552;43.422;24.592;2023-04-25T13:35:49;98978.84;;;13.28;100.00
9035;BME280;4552;43.422;24.592;2023-04-25T13:38:22;98974.16;;;13.36;100.00
9035;BME280;4552;43.422;24.592;2023-04-25T13:40:52;98970.06;;;13.29;100.00
9035;BME280;4552;43.422;24.592;2023-04-25T13:43:20;98974.53;;;13.27;100.00
9035;BME280;4552;43.422;24.592;2023-04-25T13:45:48;98993.47;;;13.35;100.00
9035;BME280;4552;43.422;24.592;2023-04-25T13:48:20;98988.22;;;13.35;100.00
9035;BME280;4552;43.422;24.592;2023-04-25T13:50:49;98979.53;;;13.55;100.00
9035;BME280;4552;43.422;24.592;2023-04-25T13:53:17;98955.66;;;13.59;100.00
9035;BME280;4552;43.422;24.592;2023-04-25T13:55:50;98938.16;;;13.80;100.00
9035;BME280;4552;43.422;24.592;2023-04-25T13:58:46;98940.66;;;14.22;100.00
9035;BME280;4552;43.422;24.592;2023-04-25T14:42:00;98901.03;;;15.87;100.00
9035;BME280;4552;43.422;24.592;2023-04-25T14:44:27;98903.44;;;15.75;100.00
9035;BME280;4552;43.422;24.592;2023-04-25T14:46:54;98901.50;;;16.12;100.00
9035;BME280;4552;43.422;24.592;2023-04-25T14:49:22;98903.56;;;16.23;100.00
9035;BME280;4552;43.422;24.592;2023-04-25T14:51:49;98905.97;;;16.27;100.00
9035;BME280;4552;43.422;24.592;2023-04-25T14:54:16;98897.75;;;16.16;100.00
9035;BME280;4552;43.422;24.592;2023-04-25T14:56:43;98902.41;;;16.11;100.00
9035;BME280;4552;43.422;24.592;2023-04-25T14:59:12;98901.09;;;16.20;100.00
9035;BME280;4552;43.422;24.592;2023-04-25T15:01:39;98897.47;;;16.38;100.00
9035;BME280;4552;43.422;24.592;2023-04-25T15:04:06;98901.16;;;16.18;100.00
9035;BME280;4552;43.422;24.592;2023-04-25T15:06:33;98897.16;;;15.94;100.00
9035;BME280;4552;43.422;24.592;2023-04-25T15:09:00;98890.66;;;15.67;100.00
9035;BME280;4552;43.422;24.592;2023-04-25T15:11:27;98891.34;;;15.53;100.00
9035;BME280;4552;43.422;24.592;2023-04-25T15:13:54;98887.63;;;15.57;100.00
9035;BME280;4552;43.422;24.592;2023-04-25T15:16:23;98886.63;;;15.60;100.00
9035;BME280;4552;43.422;24.592;2023-04-25T15:18:50;98882.41;;;15.73;100.00
9035;BME280;4552;43.422;24.592;2023-04-25T15:21:19;98867.94;;;15.65;100.00
9035;BME280;4552;43.422;24.592;2023-04-25T15:23:46;98886.72;;;15.76;100.00
9035;BME280;4552;43.422;24.592;2023-04-25T15:26:13;98868.44;;;15.71;100.00
9035;BME280;4552;43.422;24.592;2023-04-25T15:28:41;98879.31;;;15.82;100.00
9035;BME280;4552;43.422;24.592;2023-04-25T15:41:15;98889.28;;;15.77;100.00
9035;BME280;4552;43.422;24.592;2023-04-25T15:43:42;98865.22;;;15.66;100.00
9035;BME280;4552;43.422;24.592;2023-04-25T15:50:08;98887.69;;;15.73;100.00
9035;BME280;4552;43.422;24.592;2023-04-25T15:52:36;98882.59;;;15.70;100.00
9035;BME280;4552;43.422;24.592;2023-04-25T15:55:06;98888.78;;;15.86;100.00
9035;BME280;4552;43.422;24.592;2023-04-25T15:57:36;98878.66;;;15.94;100.00
9035;BME280;4552;43.422;24.592;2023-04-25T16:00:08;98860.44;;;15.90;100.00
9035;BME280;4552;43.422;24.592;2023-04-25T16:02:37;98878.81;;;15.91;100.00
9035;BME280;4552;43.422;24.592;2023-04-25T16:05:05;98871.88;;;15.73;100.00
9035;BME280;4552;43.422;24.592;2023-04-25T16:07:34;98867.38;;;15.75;100.00
9035;BME280;4552;43.422;24.592;2023-04-25T16:10:01;98870.47;;;15.83;100.00
9035;BME280;4552;43.422;24.592;2023-04-25T16:12:31;98860.31;;;15.76;100.00
9035;BME280;4552;43.422;24.592;2023-04-25T16:15:02;98847.72;;;15.63;100.00
9035;BME280;4552;43.422;24.592;2023-04-25T16:24:14;98861.88;;;15.63;100.00
9035;BME280;4552;43.422;24.592;2023-04-25T16:26:41;98851.94;;;15.68;100.00
9035;BME280;4552;43.422;24.592;2023-04-25T16:29:21;98847.63;;;15.49;100.00
9035;BME280;4552;43.422;24.592;2023-04-25T17:08:27;98863.00;;;14.87;100.00
9035;BME280;4552;43.422;24.592;2023-04-25T17:10:54;98880.69;;;15.02;100.00
9035;BME280;4552;43.422;24.592;2023-04-25T17:13:21;98874.53;;;15.03;100.00
9035;BME280;4552;43.422;24.592;2023-04-25T17:15:49;98883.44;;;15.18;100.00
9035;BME280;4552;43.422;24.592;2023-04-25T18:24:15;98965.97;;;15.01;97.27
9035;BME280;4552;43.422;24.592;2023-04-25T18:26:46;98953.94;;;14.96;97.56
9035;BME280;4552;43.422;24.592;2023-04-25T18:29:15;98956.94;;;14.88;97.64
9035;BME280;4552;43.422;24.592;2023-04-25T18:35:05;98966.63;;;14.88;97.93
9035;BME280;4552;43.422;24.592;2023-04-25T18:37:34;98960.56;;;14.86;98.85
9035;BME280;4552;43.422;24.592;2023-04-25T18:40:03;98970.66;;;15.13;97.79
9035;BME280;4552;43.422;24.592;2023-04-25T18:42:34;98974.75;;;15.02;99.35
9035;BME280;4552;43.422;24.592;2023-04-25T18:45:06;98951.72;;;15.05;99.30
9035;BME280;4552;43.422;24.592;2023-04-25T18:47:33;98960.34;;;14.90;99.85
9035;BME280;4552;43.422;24.592;2023-04-25T18:50:00;98978.56;;;14.95;99.97
9035;BME280;4552;43.422;24.592;2023-04-25T18:52:29;98955.28;;;14.67;100.00
9035;BME280;4552;43.422;24.592;2023-04-25T18:54:56;98971.09;;;14.67;100.00
9035;BME280;4552;43.422;24.592;2023-04-25T18:57:25;98973.50;;;14.90;100.00
9035;BME280;4552;43.422;24.592;2023-04-25T18:59:55;98980.50;;;15.10;100.00
9035;BME280;4552;43.422;24.592;2023-04-25T19:02:22;98985.91;;;15.07;99.61
9035;BME280;4552;43.422;24.592;2023-04-25T19:04:50;98971.25;;;15.01;99.21
9035;BME280;4552;43.422;24.592;2023-04-25T19:07:17;98971.47;;;14.97;96.84
9035;BME280;4552;43.422;24.592;2023-04-25T19:09:58;98982.50;;;15.05;97.23
9035;BME280;4552;43.422;24.592;2023-04-25T19:12:27;98978.34;;;14.99;95.85
9035;BME280;4552;43.422;24.592;2023-04-25T19:14:54;98971.47;;;14.97;96.48
9035;BME280;4552;43.422;24.592;2023-04-25T19:55:07;98993.19;;;14.25;92.57
9035;BME280;4552;43.422;24.592;2023-04-25T19:57:35;98990.91;;;14.37;92.31
9035;BME280;4552;43.422;24.592;2023-04-25T20:00:24;98988.72;;;14.47;92.29
9035;BME280;4552;43.422;24.592;2023-04-25T20:02:51;98992.88;;;14.71;91.66
9035;BME280;4552;43.422;24.592;2023-04-25T20:05:21;98980.78;;;14.67;90.38
9035;BME280;4552;43.422;24.592;2023-04-25T20:07:57;98984.47;;;14.81;91.02
9035;BME280;4552;43.422;24.592;2023-04-25T20:10:25;98992.47;;;14.80;90.65
9035;BME280;4552;43.422;24.592;2023-04-25T20:12:57;98974.50;;;14.69;92.00
9035;BME280;4552;43.422;24.592;2023-04-25T20:15:26;98982.75;;;14.62;92.68
9035;BME280;4552;43.422;24.592;2023-04-25T20:17:54;98984.41;;;14.26;93.93
9035;BME280;4552;43.422;24.592;2023-04-25T20:20:21;98977.91;;;14.13;94.83
9035;BME280;4552;43.422;24.592;2023-04-25T20:22:48;98986.84;;;14.30;93.83
9035;BME280;4552;43.422;24.592;2023-04-25T20:25:15;98990.19;;;14.14;94.68
9035;BME280;4552;43.422;24.592;2023-04-25T20:27:44;105440.91;;;13.95;96.65
9035;BME280;4552;43.422;24.592;2023-04-25T20:30:12;98978.25;;;13.85;98.88
9035;BME280;4552;43.422;24.592;2023-04-25T20:36:01;98978.16;;;13.66;99.32
9035;BME280;4552;43.422;24.592;2023-04-25T20:38:28;98988.78;;;13.63;99.52
9035;BME280;4552;43.422;24.592;2023-04-25T20:40:55;98973.00;;;13.63;100.00
9035;BME280;4552;43.422;24.592;2023-04-25T20:43:24;98975.13;;;13.55;100.00
9035;BME280;4552;43.422;24.592;2023-04-25T20:45:51;98967.66;;;13.45;100.00
9035;BME280;4552;43.422;24.592;2023-04-25T20:48:19;98953.75;;;13.43;100.00
9035;BME280;4552;43.422;24.592;2023-04-25T20:50:46;98967.25;;;13.55;100.00
9035;BME280;4552;43.422;24.592;2023-04-25T20:53:13;98963.50;;;13.61;100.00
9035;BME280;4552;43.422;24.592;2023-04-25T20:55:41;98969.63;;;13.61;100.00
9035;BME280;4552;43.422;24.592;2023-04-25T20:58:08;98955.72;;;13.58;100.00
9035;BME280;4552;43.422;24.592;2023-04-25T21:00:37;98962.63;;;13.60;100.00
9035;BME280;4552;43.422;24.592;2023-04-25T21:36:43;98970.38;;;13.00;100.00
9035;BME280;4552;43.422;24.592;2023-04-25T21:39:10;98966.56;;;12.84;100.00
9035;BME280;4552;43.422;24.592;2023-04-25T21:41:37;98954.72;;;12.74;100.00
9035;BME280;4552;43.422;24.592;2023-04-25T21:44:04;98970.41;;;12.76;100.00
9035;BME280;4552;43.422;24.592;2023-04-25T22:00:30;98970.59;;;12.48;100.00
9035;BME280;4552;43.422;24.592;2023-04-25T22:02:57;98976.41;;;12.56;100.00
9035;BME280;4552;43.422;24.592;2023-04-25T22:05:25;98966.81;;;12.55;100.00
9035;BME280;4552;43.422;24.592;2023-04-25T22:07:54;98969.66;;;12.49;100.00
9035;BME280;4552;43.422;24.592;2023-04-25T22:10:22;98974.22;;;12.44;100.00
9035;BME280;4552;43.422;24.592;2023-04-25T22:12:49;98975.72;;;12.51;100.00
9035;BME280;4552;43.422;24.592;2023-04-25T22:15:16;98977.25;;;12.57;100.00
9035;BME280;4552;43.422;24.592;2023-04-25T22:24:29;98956.53;;;12.49;100.00
9035;BME280;4552;43.422;24.592;2023-04-25T22:26:56;98960.09;;;12.48;100.00
9035;BME280;4552;43.422;24.592;2023-04-25T22:29:23;98966.13;;;12.50;100.00
9035;BME280;4552;43.422;24.592;2023-04-25T22:38:37;98964.06;;;12.35;100.00
9035;BME280;4552;43.422;24.592;2023-04-25T22:41:06;98964.41;;;12.49;100.00
9035;BME280;4552;43.422;24.592;2023-04-25T22:43:33;98959.16;;;12.49;100.00
9035;BME280;4552;43.422;24.592;2023-04-25T22:46:00;98967.25;;;12.43;100.00
9035;BME280;4552;43.422;24.592;2023-04-25T22:48:27;98961.25;;;12.40;100.00
9035;BME280;4552;43.422;24.592;2023-04-25T22:51:00;98964.00;;;12.37;100.00
9035;BME280;4552;43.422;24.592;2023-04-25T22:53:28;98962.47;;;12.31;100.00
9035;BME280;4552;43.422;24.592;2023-04-25T22:55:56;98962.25;;;12.37;100.00
9035;BME280;4552;43.422;24.592;2023-04-25T22:58:25;98963.09;;;12.38;100.00
9035;BME280;4552;43.422;24.592;2023-04-25T23:00:52;98957.81;;;12.39;100.00
9035;BME280;4552;43.422;24.592;2023-04-25T23:06:40;98952.13;;;12.27;100.00
9035;BME280;4552;43.422;24.592;2023-04-25T23:09:08;98941.28;;;12.12;100.00
9035;BME280;4552;43.422;24.592;2023-04-25T23:11:36;98947.81;;;12.26;100.00
9035;BME280;4552;43.422;24.592;2023-04-25T23:14:05;98947.94;;;12.23;100.00
9035;BME280;4552;43.422;24.592;2023-04-25T23:16:32;98951.66;;;12.15;100.00
9035;BME280;4552;43.422;24.592;2023-04-25T23:18:59;98949.09;;;12.14;100.00
9035;BME280;4552;43.422;24.592;2023-04-25T23:21:26;98942.16;;;12.13;100.00
9035;BME280;4552;43.422;24.592;2023-04-25T23:23:53;98951.44;;;11.97;100.00
9035;BME280;4552;43.422;24.592;2023-04-25T23:26:20;98933.47;;;11.86;100.00
9035;BME280;4552;43.422;24.592;2023-04-25T23:28:47;98922.94;;;11.88;100.00
9035;BME280;4552;43.422;24.592;2023-04-25T23:31:15;98926.25;;;11.93;100.00
9035;BME280;4552;43.422;24.592;2023-04-25T23:40:26;98927.56;;;12.04;100.00
9035;BME280;4552;43.422;24.592;2023-04-25T23:42:53;98928.44;;;12.05;100.00
9035;BME280;4552;43.422;24.592;2023-04-25T23:45:20;98919.22;;;11.95;100.00